Time;durP1;ratioP1;P1;durP2;ratioP2;P2;SDS_P1;SDS_P2;PMS_P1;PMS_P2;Temp;Humidity;BMP_temperature;BMP_pressure;BME280_temperature;BME280_humidity;BME280_pressure;Samples;Min_cycle;Max_cycle;Signal;HPM_P1;HPM_P2
2023/04/11 04:27:43;;;;;;;3.50;2.50;;;11.70;96.70;;;;;;5079846;28;20108;-73
2023/04/11 04:30:18;;;;;;;4.35;2.40;;;11.50;96.70;;;;;;5065959;28;20261;-74
2023/04/11 04:33:02;;;;;;;2.70;2.30;;;11.30;96.70;;;;;;5091617;28;20044;-74
2023/04/11 04:35:34;;;;;;;2.78;2.08;;;11.20;96.70;;;;;;5083191;28;20104;-74
2023/04/11 04:38:07;;;;;;;4.80;2.60;;;11.20;96.70;;;;;;5065868;28;20040;-73
2023/04/11 04:40:45;;;;;;;2.90;2.35;;;11.30;96.70;;;;;;5082686;28;20068;-74
2023/04/11 04:43:22;;;;;;;3.55;2.55;;;11.20;96.70;;;;;;5082487;28;20055;-73
2023/04/11 04:45:58;;;;;;;4.50;2.63;;;11.30;96.70;;;;;;5074859;28;20040;-73
2023/04/11 04:48:34;;;;;;;3.35;2.13;;;11.40;96.70;;;;;;5082116;28;20059;-73
2023/04/11 04:51:03;;;;;;;2.72;1.80;;;11.40;96.70;;;;;;5090543;28;20136;-74
2023/04/11 04:53:37;;;;;;;3.13;2.55;;;11.40;96.70;;;;;;5082011;28;20052;-74
2023/04/11 04:56:08;;;;;;;3.42;2.00;;;11.30;96.70;;;;;;5088653;28;20055;-73
2023/04/11 04:58:46;;;;;;;3.20;2.13;;;11.30;96.70;;;;;;5100326;28;20408;-73
2023/04/11 05:01:17;;;;;;;3.30;2.28;;;11.30;96.70;;;;;;5090988;28;20151;-74
2023/04/11 05:03:49;;;;;;;3.22;2.33;;;11.30;96.70;;;;;;5076407;28;20048;-74
2023/04/11 05:06:28;;;;;;;4.38;2.40;;;11.30;96.70;;;;;;5074580;28;20443;-74
2023/04/11 05:08:58;;;;;;;2.60;2.30;;;11.40;96.70;;;;;;5083637;28;20146;-73
2023/04/11 05:11:27;;;;;;;5.05;2.83;;;11.40;96.70;;;;;;5089001;28;20046;-74
2023/04/11 05:13:57;;;;;;;4.47;2.50;;;11.60;96.70;;;;;;5094235;28;20105;-74
2023/04/11 05:16:27;;;;;;;3.53;2.55;;;11.60;96.70;;;;;;5081895;28;20101;-74
2023/04/11 05:18:57;;;;;;;3.63;2.50;;;11.60;96.70;;;;;;5078175;28;20044;-73
2023/04/11 05:21:26;;;;;;;3.92;2.58;;;11.60;96.70;;;;;;5074391;28;20044;-74
2023/04/11 05:23:54;;;;;;;3.08;2.58;;;11.50;96.70;;;;;;5080914;28;20714;-73
2023/04/11 05:26:25;;;;;;;4.28;2.78;;;11.50;96.70;;;;;;5081527;28;20063;-73
2023/04/11 05:28:54;;;;;;;3.17;2.50;;;11.70;96.70;;;;;;5091579;28;20537;-74
2023/04/11 05:31:28;;;;;;;4.50;2.70;;;11.60;96.70;;;;;;5086221;28;20048;-73
2023/04/11 05:33:57;;;;;;;5.80;3.08;;;11.70;96.70;;;;;;5080181;28;20121;-73
2023/04/11 05:36:28;;;;;;;4.38;2.95;;;11.80;96.70;;;;;;5080538;28;20046;-74
2023/04/11 05:38:56;;;;;;;4.68;3.03;;;11.60;96.70;;;;;;5073544;28;20502;-73
2023/04/11 05:41:28;;;;;;;5.68;2.67;;;11.50;96.70;;;;;;5081302;28;20584;-73
2023/04/11 05:43:56;;;;;;;3.83;2.53;;;11.70;96.70;;;;;;5069296;28;20051;-72
2023/04/11 05:46:26;;;;;;;4.40;2.58;;;11.70;96.70;;;;;;5084241;28;20408;-74
2023/04/11 05:48:56;;;;;;;3.47;2.55;;;11.70;96.70;;;;;;5070345;28;20146;-73
2023/04/11 05:51:25;;;;;;;3.70;2.22;;;11.60;96.70;;;;;;5094462;28;20114;-73
2023/04/11 05:53:54;;;;;;;5.85;2.47;;;11.50;96.70;;;;;;5093592;28;20039;-73
2023/04/11 05:56:23;;;;;;;4.85;2.92;;;11.40;96.70;;;;;;5083068;28;20044;-73
2023/04/11 05:58:51;;;;;;;3.78;2.42;;;11.60;96.70;;;;;;5086496;28;20047;-72
2023/04/11 06:01:21;;;;;;;4.32;2.58;;;11.90;96.70;;;;;;5077173;28;20473;-73
2023/04/11 06:03:49;;;;;;;5.70;2.35;;;11.90;96.70;;;;;;5090906;28;20066;-73
2023/04/11 06:06:19;;;;;;;4.15;2.53;;;12.00;96.70;;;;;;5075649;28;20445;-73
2023/04/11 06:08:48;;;;;;;3.40;2.47;;;11.60;96.70;;;;;;5093580;28;20501;-72
2023/04/11 06:11:17;;;;;;;9.27;2.55;;;11.80;96.70;;;;;;5085531;28;20101;-73
2023/04/11 06:13:45;;;;;;;3.95;2.55;;;12.00;96.70;;;;;;5098910;28;20843;-73
2023/04/11 06:16:14;;;;;;;3.05;2.53;;;12.10;96.70;;;;;;5080940;28;20124;-73
2023/04/11 06:18:43;;;;;;;5.93;2.97;;;12.20;96.70;;;;;;5082376;28;20075;-73
2023/04/11 06:21:11;;;;;;;3.50;2.38;;;12.10;96.70;;;;;;5089272;28;20043;-73
2023/04/11 06:23:41;;;;;;;3.13;2.60;;;12.10;96.70;;;;;;5064824;28;20667;-73
2023/04/11 06:26:10;;;;;;;5.22;2.95;;;12.30;96.70;;;;;;5085749;28;20134;-72
2023/04/11 06:28:38;;;;;;;4.13;2.67;;;12.40;96.70;;;;;;5088727;28;20047;-72
2023/04/11 06:31:08;;;;;;;5.68;4.07;;;12.40;96.70;;;;;;5081758;28;20094;-72
2023/04/11 06:33:37;;;;;;;6.38;4.47;;;12.50;96.70;;;;;;5084357;28;20063;-72
2023/04/11 06:36:06;;;;;;;11.13;6.88;;;12.60;96.70;;;;;;5079277;28;20497;-72
2023/04/11 06:38:36;;;;;;;8.05;6.72;;;12.60;96.70;;;;;;5093466;28;20508;-73
2023/04/11 06:41:07;;;;;;;10.90;7.18;;;12.50;96.70;;;;;;5080921;28;20078;-72
2023/04/11 06:43:35;;;;;;;7.25;5.75;;;12.50;96.70;;;;;;5085449;28;20050;-73
2023/04/11 06:46:06;;;;;;;9.88;5.43;;;12.60;96.70;;;;;;5087479;28;20055;-72
2023/04/11 06:48:35;;;;;;;8.38;5.30;;;12.60;96.70;;;;;;5082022;28;20143;-72
2023/04/11 06:51:04;;;;;;;8.82;4.97;;;12.60;96.70;;;;;;5097136;28;20093;-73
2023/04/11 06:53:33;;;;;;;4.88;3.85;;;12.60;96.70;;;;;;5088144;28;20044;-72
2023/04/11 06:56:01;;;;;;;7.03;4.35;;;12.70;96.70;;;;;;5077112;28;20040;-72
2023/04/11 06:58:32;;;;;;;7.53;4.03;;;12.70;96.70;;;;;;5085578;28;20048;-73
2023/04/11 07:01:01;;;;;;;5.75;3.60;;;12.80;96.70;;;;;;5076148;28;20405;-74
2023/04/11 07:03:29;;;;;;;6.97;3.83;;;12.90;96.70;;;;;;5089378;28;20051;-74
2023/04/11 07:05:58;;;;;;;5.13;3.22;;;12.90;96.70;;;;;;5082628;28;20051;-74
2023/04/11 07:08:27;;;;;;;3.53;3.20;;;12.80;96.70;;;;;;5081633;28;20514;-73
2023/04/11 07:10:55;;;;;;;4.70;2.72;;;12.90;96.70;;;;;;5071706;28;20562;-72
2023/04/11 07:13:24;;;;;;;3.55;3.10;;;12.90;96.70;;;;;;5088264;28;20115;-72
2023/04/11 07:15:54;;;;;;;7.38;3.65;;;13.00;96.70;;;;;;5098799;28;20564;-74
2023/04/11 07:18:24;;;;;;;4.25;3.00;;;13.10;96.70;;;;;;5089870;28;20044;-71
2023/04/11 07:20:53;;;;;;;6.10;3.78;;;13.00;96.70;;;;;;5085326;28;20044;-73
2023/04/11 07:23:22;;;;;;;3.80;3.08;;;13.10;96.70;;;;;;5071397;28;20039;-72
2023/04/11 07:25:53;;;;;;;3.95;3.40;;;13.10;96.70;;;;;;5074974;28;20139;-72
2023/04/11 07:28:22;;;;;;;5.38;3.25;;;13.20;96.70;;;;;;5085629;28;20043;-72
2023/04/11 07:30:53;;;;;;;4.05;3.25;;;13.30;96.70;;;;;;5087924;28;20051;-72
2023/04/11 07:33:22;;;;;;;6.57;3.80;;;13.40;96.70;;;;;;5092190;28;20039;-71
2023/04/11 07:35:50;;;;;;;6.15;3.83;;;13.50;96.70;;;;;;5070112;28;20052;-73
2023/04/11 07:38:26;;;;;;;5.53;3.92;;;13.60;96.70;;;;;;5080910;28;20113;-73
2023/04/11 07:40:55;;;;;;;7.22;4.63;;;13.60;96.70;;;;;;5088735;28;20050;-73
2023/04/11 07:43:24;;;;;;;8.05;4.70;;;13.60;96.70;;;;;;5098444;28;20035;-72
2023/04/11 07:45:56;;;;;;;6.00;4.28;;;13.60;96.70;;;;;;5072091;28;20040;-73
2023/04/11 07:48:26;;;;;;;6.13;4.47;;;13.60;96.70;;;;;;5093904;28;20498;-73
2023/04/11 07:50:55;;;;;;;6.72;4.25;;;13.50;96.70;;;;;;5094021;28;20038;-72
2023/04/11 07:53:23;;;;;;;8.13;4.63;;;13.40;96.70;;;;;;5093687;28;20851;-73
2023/04/11 07:55:52;;;;;;;8.82;5.90;;;13.30;96.70;;;;;;5094670;28;20052;-72
2023/04/11 07:58:21;;;;;;;8.38;4.97;;;13.50;96.70;;;;;;5086154;28;20560;-74
2023/04/11 08:00:49;;;;;;;9.75;5.20;;;13.50;96.70;;;;;;5098008;28;20044;-74
2023/04/11 08:03:20;;;;;;;7.03;5.03;;;13.70;96.70;;;;;;5089448;28;20036;-75
2023/04/11 08:05:51;;;;;;;6.65;4.32;;;13.90;96.70;;;;;;5102306;28;20039;-73
2023/04/11 08:08:19;;;;;;;9.77;5.72;;;14.00;96.70;;;;;;5101204;28;20071;-74
2023/04/11 08:10:48;;;;;;;8.05;5.45;;;14.00;96.70;;;;;;5082809;28;20400;-74
2023/04/11 08:13:19;;;;;;;10.27;6.13;;;14.10;96.70;;;;;;5087038;28;20054;-74
2023/04/11 08:15:47;;;;;;;8.85;5.93;;;14.10;96.70;;;;;;5098316;28;20097;-74
2023/04/11 08:18:20;;;;;;;10.57;5.95;;;14.00;96.70;;;;;;5103035;28;20050;-73
2023/04/11 08:20:50;;;;;;;10.27;6.18;;;13.90;96.70;;;;;;5092770;28;20036;-73
2023/04/11 08:23:20;;;;;;;10.95;6.30;;;14.00;96.70;;;;;;5078470;28;20050;-73
2023/04/11 08:25:49;;;;;;;9.18;6.35;;;14.20;96.70;;;;;;5089440;28;20131;-73
2023/04/11 08:28:17;;;;;;;10.57;6.88;;;14.30;96.70;;;;;;5083427;28;20623;-72
2023/04/11 08:30:45;;;;;;;11.02;7.10;;;14.40;96.70;;;;;;5088738;28;20086;-74
2023/04/11 08:33:14;;;;;;;11.40;7.22;;;14.60;96.70;;;;;;5100701;28;20075;-74
2023/04/11 08:35:42;;;;;;;8.40;6.40;;;14.60;96.70;;;;;;5089923;28;20766;-74
2023/04/11 08:38:12;;;;;;;8.00;6.28;;;14.70;96.70;;;;;;5096561;27;20123;-75
2023/04/11 08:40:40;;;;;;;8.77;6.50;;;14.70;96.70;;;;;;5089849;28;20710;-73
2023/04/11 08:43:11;;;;;;;8.50;5.47;;;14.80;96.70;;;;;;5089487;28;20047;-74
2023/04/11 08:45:39;;;;;;;7.22;5.40;;;14.80;96.70;;;;;;5101962;28;20047;-73
2023/04/11 08:48:10;;;;;;;7.75;5.68;;;14.90;96.70;;;;;;5084601;28;20032;-73
2023/04/11 08:50:40;;;;;;;10.65;5.78;;;15.00;96.70;;;;;;5082321;28;20040;-73
2023/04/11 08:53:09;;;;;;;7.40;5.35;;;15.10;96.70;;;;;;5083816;28;20081;-73
2023/04/11 08:55:45;;;;;;;8.55;5.35;;;15.20;96.70;;;;;;5093451;28;20028;-73
2023/04/11 08:58:14;;;;;;;6.85;5.15;;;15.20;96.70;;;;;;5088351;28;20055;-73
2023/04/11 09:00:42;;;;;;;6.32;5.22;;;15.30;96.70;;;;;;5079951;28;20509;-72
2023/04/11 09:03:11;;;;;;;7.18;5.60;;;15.50;96.70;;;;;;5081631;28;20486;-74
2023/04/11 09:05:42;;;;;;;9.13;5.97;;;15.50;96.70;;;;;;5070770;28;20044;-74
2023/04/11 09:08:11;;;;;;;7.40;5.50;;;15.60;96.70;;;;;;5093636;28;20048;-74
2023/04/11 09:10:40;;;;;;;6.80;5.22;;;15.70;96.70;;;;;;5084381;28;20111;-73
2023/04/11 09:13:24;;;;;;;8.13;5.18;;;15.70;96.70;;;;;;5075729;28;20095;-73
2023/04/11 09:16:04;;;;;;;6.53;5.13;;;15.70;96.70;;;;;;5089462;28;20108;-73
2023/04/11 09:18:32;;;;;;;8.38;5.95;;;15.70;96.70;;;;;;5066989;28;20109;-74
2023/04/11 09:21:02;;;;;;;8.10;5.43;;;15.70;96.70;;;;;;5096062;28;20055;-73
2023/04/11 09:23:30;;;;;;;8.45;5.95;;;16.00;96.70;;;;;;5085145;28;20044;-73
2023/04/11 09:25:59;;;;;;;8.00;5.80;;;16.10;96.70;;;;;;5082757;28;20120;-74
2023/04/11 09:28:39;;;;;;;13.05;6.00;;;16.20;96.70;;;;;;5080283;28;20040;-74
2023/04/11 09:31:09;;;;;;;7.28;5.38;;;16.20;96.70;;;;;;5094201;28;20043;-74
2023/04/11 09:33:37;;;;;;;8.77;5.65;;;16.20;96.70;;;;;;5089199;28;20028;-73
2023/04/11 09:36:18;;;;;;;6.43;5.13;;;16.30;96.70;;;;;;5073914;28;20161;-73
2023/04/11 09:38:47;;;;;;;8.27;5.40;;;16.40;96.70;;;;;;5090772;28;20052;-74
2023/04/11 09:41:27;;;;;;;9.32;5.80;;;16.50;96.70;;;;;;5088113;28;20058;-74
2023/04/11 09:43:57;;;;;;;7.07;4.72;;;16.50;96.70;;;;;;5089893;28;20047;-73
2023/04/11 09:46:26;;;;;;;4.40;3.75;;;16.60;96.70;;;;;;5067367;28;20126;-73
2023/04/11 09:48:55;;;;;;;4.97;3.58;;;16.70;96.70;;;;;;5082107;28;20710;-73
2023/04/11 09:51:24;;;;;;;6.30;3.90;;;16.70;96.70;;;;;;5100491;28;20043;-73
2023/04/11 09:54:03;;;;;;;4.05;2.90;;;16.70;96.70;;;;;;5089975;28;20050;-73
2023/04/11 09:56:33;;;;;;;3.35;2.67;;;16.80;96.70;;;;;;5091315;28;20444;-73
2023/04/11 09:59:03;;;;;;;9.63;4.68;;;16.80;96.70;;;;;;5098267;28;20395;-73
2023/04/11 10:01:32;;;;;;;5.57;4.07;;;16.70;96.70;;;;;;5081604;28;20385;-75
2023/04/11 10:04:00;;;;;;;6.45;2.88;;;16.70;96.70;;;;;;5082868;28;20040;-74
2023/04/11 10:06:33;;;;;;;9.50;5.63;;;16.60;96.70;;;;;;5089463;28;20441;-74
2023/04/11 10:09:10;;;;;;;5.40;3.65;;;16.70;96.70;;;;;;5081544;28;20569;-74
2023/04/11 10:11:41;;;;;;;5.18;3.05;;;16.70;96.70;;;;;;5086542;28;20043;-73
2023/04/11 10:14:46;;;;;;;2.03;1.80;;;16.80;96.70;;;;;;5090717;28;20063;-73
2023/04/11 10:17:16;;;;;;;3.22;1.80;;;16.80;96.70;;;;;;5070598;28;20862;-74
2023/04/11 10:19:53;;;;;;;2.22;1.58;;;16.80;96.70;;;;;;5086563;28;20123;-73
2023/04/11 10:22:58;;;;;;;3.20;1.92;;;16.90;96.70;;;;;;5099899;28;20048;-73
2023/04/11 10:25:27;;;;;;;2.42;1.63;;;17.00;96.70;;;;;;5087056;28;20047;-73
2023/04/11 10:27:59;;;;;;;2.58;1.73;;;17.10;96.70;;;;;;5090485;28;20074;-72
2023/04/11 10:31:04;;;;;;;2.53;1.80;;;17.20;96.70;;;;;;5090184;28;20046;-72
2023/04/11 10:33:34;;;;;;;3.67;1.90;;;17.10;96.70;;;;;;5100804;28;20039;-72
2023/04/11 10:36:05;;;;;;;3.00;1.90;;;17.10;96.70;;;;;;5085089;28;20051;-73
2023/04/11 10:38:47;;;;;;;4.28;2.00;;;17.00;96.70;;;;;;5074199;28;20055;-73
2023/04/11 10:41:17;;;;;;;3.80;2.40;;;16.70;96.70;;;;;;5069826;28;20060;-74
2023/04/11 10:43:46;;;;;;;4.85;2.35;;;16.60;96.70;;;;;;5096723;28;20051;-73
2023/04/11 10:46:20;;;;;;;2.78;2.45;;;16.50;96.70;;;;;;5097628;28;20074;-72
2023/04/11 10:48:57;;;;;;;3.05;2.22;;;16.50;96.70;;;;;;5086373;28;20047;-73
2023/04/11 10:51:27;;;;;;;2.67;2.13;;;16.40;96.70;;;;;;5099539;28;20105;-73
2023/04/11 10:53:59;;;;;;;2.50;2.15;;;16.40;96.70;;;;;;5084696;28;20048;-73
2023/04/11 10:56:54;;;;;;;3.38;2.20;;;16.30;96.70;;;;;;5098455;28;20044;-72
2023/04/11 10:59:59;;;;;;;4.00;2.60;;;16.20;96.70;;;;;;5086053;28;20044;-73
2023/04/11 11:02:40;;;;;;;2.95;2.30;;;16.10;96.70;;;;;;5093879;28;20051;-73
2023/04/11 11:05:17;;;;;;;2.20;2.00;;;16.10;96.70;;;;;;5094204;28;20043;-73
2023/04/11 11:07:48;;;;;;;3.75;2.15;;;16.10;96.70;;;;;;5090580;28;20083;-73
2023/04/11 11:10:38;;;;;;;2.85;2.47;;;16.10;96.70;;;;;;5081950;28;20071;-73
2023/04/11 11:13:07;;;;;;;4.05;2.35;;;16.30;96.70;;;;;;5088837;28;20075;-74
2023/04/11 11:15:45;;;;;;;3.05;2.00;;;16.50;96.70;;;;;;5099340;28;20100;-74
2023/04/11 11:18:17;;;;;;;3.33;1.98;;;16.70;96.70;;;;;;5082512;28;20069;-74
2023/04/11 11:20:45;;;;;;;2.47;1.48;;;16.80;96.70;;;;;;5098756;28;20058;-73
2023/04/11 11:23:13;;;;;;;4.28;3.42;;;17.00;96.70;;;;;;5090910;28;20032;-74
2023/04/11 11:25:51;;;;;;;2.67;2.05;;;17.00;96.70;;;;;;5091223;28;20036;-74
2023/04/11 11:28:20;;;;;;;3.80;1.55;;;17.10;96.70;;;;;;5085316;28;20565;-74
2023/04/11 11:30:53;;;;;;;4.32;1.55;;;17.10;96.70;;;;;;5088383;28;20125;-74
2023/04/11 11:33:27;;;;;;;2.70;1.17;;;17.20;96.70;;;;;;5101718;28;20135;-74
2023/04/11 11:35:57;;;;;;;1.20;0.93;;;17.30;96.70;;;;;;5097921;28;20089;-74
2023/04/11 11:38:29;;;;;;;3.42;1.73;;;17.40;96.70;;;;;;5074642;28;20539;-75
2023/04/11 11:40:59;;;;;;;2.53;1.20;;;17.60;96.70;;;;;;5072483;28;20063;-75
2023/04/11 11:43:27;;;;;;;1.38;1.00;;;17.60;96.70;;;;;;5077262;28;20556;-73
2023/04/11 11:46:09;;;;;;;2.15;1.30;;;17.80;96.70;;;;;;5097726;28;20102;-73
2023/04/11 11:48:41;;;;;;;3.75;1.08;;;17.80;96.70;;;;;;5097536;28;20040;-74
2023/04/11 11:51:09;;;;;;;2.00;1.00;;;17.70;96.70;;;;;;5092040;28;20040;-73
2023/04/11 11:53:37;;;;;;;4.82;1.45;;;17.70;96.70;;;;;;5098795;28;20115;-74
2023/04/11 11:56:13;;;;;;;2.22;1.13;;;17.60;96.70;;;;;;5095263;28;20046;-74
2023/04/11 11:58:44;;;;;;;3.27;1.33;;;17.70;96.70;;;;;;5091126;28;20451;-74
2023/04/11 12:01:14;;;;;;;3.75;1.25;;;18.10;96.70;;;;;;5086652;28;20706;-74
2023/04/11 12:03:49;;;;;;;2.17;1.10;;;18.20;96.70;;;;;;5101685;28;20532;-73
2023/04/11 12:06:18;;;;;;;2.75;1.17;;;18.50;96.70;;;;;;5091897;28;20603;-73
2023/04/11 12:08:52;;;;;;;4.35;1.15;;;18.60;96.70;;;;;;5084523;28;20456;-73
2023/04/11 12:11:21;;;;;;;3.60;0.90;;;18.60;96.70;;;;;;5090273;28;20044;-73
2023/04/11 12:13:52;;;;;;;1.60;0.95;;;18.70;96.70;;;;;;5083035;28;20036;-73
2023/04/11 12:16:22;;;;;;;4.53;1.30;;;18.50;96.70;;;;;;5102219;28;20050;-73
2023/04/11 12:18:52;;;;;;;3.22;1.00;;;18.40;96.70;;;;;;5096787;28;20040;-74
2023/04/11 12:21:20;;;;;;;2.25;1.10;;;18.30;96.70;;;;;;5093357;28;20134;-73
2023/04/11 12:23:48;;;;;;;2.10;0.95;;;18.20;96.70;;;;;;5092107;28;20046;-74
2023/04/11 12:26:18;;;;;;;5.57;3.30;;;18.20;96.70;;;;;;5088859;28;20059;-74
2023/04/11 12:28:47;;;;;;;3.17;1.52;;;18.30;96.70;;;;;;5093134;28;20602;-73
2023/04/11 12:31:16;;;;;;;2.90;2.35;;;18.30;96.70;;;;;;5076377;28;20047;-73
2023/04/11 12:33:44;;;;;;;4.47;1.73;;;18.60;96.70;;;;;;5102354;27;20680;-73
2023/04/11 12:36:14;;;;;;;2.97;1.55;;;18.70;96.70;;;;;;5085494;28;20040;-74
2023/04/11 12:38:42;;;;;;;4.13;2.05;;;18.90;96.70;;;;;;5083071;28;20040;-74
2023/04/11 12:41:10;;;;;;;3.30;1.60;;;19.10;96.70;;;;;;5083234;28;20044;-74
2023/04/11 12:44:00;;;;;;;2.13;1.20;;;19.10;96.70;;;;;;5096672;28;20126;-74
2023/04/11 12:46:29;;;;;;;3.22;1.52;;;19.20;96.70;;;;;;5090692;28;20039;-73
2023/04/11 12:48:57;;;;;;;3.05;1.33;;;19.40;96.70;;;;;;5066575;28;20040;-74
2023/04/11 12:51:27;;;;;;;2.15;1.35;;;19.40;96.70;;;;;;5069602;28;20040;-74
2023/04/11 12:53:55;;;;;;;2.42;1.10;;;19.30;96.70;;;;;;5102689;28;20420;-74
2023/04/11 12:56:23;;;;;;;2.83;1.58;;;19.50;96.70;;;;;;5102607;28;20707;-73
2023/04/11 12:58:52;;;;;;;2.45;1.27;;;19.60;96.70;;;;;;5092102;28;20075;-74
2023/04/11 13:01:22;;;;;;;3.85;1.95;;;19.80;96.70;;;;;;5092473;28;20058;-73
2023/04/11 13:03:50;;;;;;;8.27;4.75;;;19.60;96.70;;;;;;5091497;28;20048;-74
2023/04/11 13:06:19;;;;;;;3.58;1.77;;;19.50;96.70;;;;;;5094713;28;20097;-74
2023/04/11 13:08:49;;;;;;;2.88;1.27;;;19.20;96.70;;;;;;5096835;28;20087;-73
2023/04/11 13:11:17;;;;;;;3.50;1.50;;;18.90;96.70;;;;;;5090416;28;20154;-74
2023/04/11 13:13:46;;;;;;;2.72;0.90;;;18.60;96.70;;;;;;5080502;28;20123;-74
2023/04/11 13:16:14;;;;;;;3.08;1.08;;;18.30;96.70;;;;;;5098470;28;20101;-73
2023/04/11 13:18:42;;;;;;;2.15;0.98;;;18.00;96.70;;;;;;5076458;28;20024;-74
2023/04/11 13:21:10;;;;;;;2.20;0.85;;;17.70;96.70;;;;;;5097410;28;20052;-73
2023/04/11 13:23:39;;;;;;;4.40;1.10;;;17.50;96.70;;;;;;5101539;28;20561;-73
2023/04/11 13:26:08;;;;;;;1.98;1.27;;;17.40;96.70;;;;;;5100317;28;20047;-74
2023/04/11 13:28:39;;;;;;;4.47;1.77;;;17.30;96.70;;;;;;5074914;28;20464;-73
2023/04/11 13:31:10;;;;;;;3.47;1.55;;;17.30;96.70;;;;;;5085126;28;20044;-73
2023/04/11 13:33:43;;;;;;;2.53;1.10;;;17.30;96.70;;;;;;5089261;28;20043;-73
2023/04/11 13:36:11;;;;;;;1.33;1.00;;;17.40;96.70;;;;;;5092035;28;20077;-73
2023/04/11 13:38:39;;;;;;;3.33;1.70;;;17.30;96.70;;;;;;5092633;28;20125;-74
2023/04/11 13:41:09;;;;;;;3.08;2.03;;;17.40;96.70;;;;;;5073797;28;20497;-73
2023/04/11 13:43:41;;;;;;;10.45;6.22;;;17.30;96.70;;;;;;5076186;28;20133;-73
2023/04/11 13:46:10;;;;;;;6.70;4.15;;;17.30;96.70;;;;;;5083814;28;20755;-73
2023/04/11 13:48:38;;;;;;;2.58;1.55;;;17.40;96.70;;;;;;5080825;28;20048;-73
2023/04/11 13:51:07;;;;;;;2.67;1.40;;;17.40;96.70;;;;;;5081198;28;20047;-73
2023/04/11 13:53:35;;;;;;;4.35;2.05;;;17.40;96.70;;;;;;5081104;28;20755;-73
2023/04/11 13:56:03;;;;;;;2.10;1.40;;;17.30;96.70;;;;;;5081626;28;20039;-73
2023/04/11 13:58:33;;;;;;;2.95;1.00;;;17.40;96.70;;;;;;5081656;28;20082;-73
2023/04/11 14:01:02;;;;;;;4.63;1.60;;;17.30;96.70;;;;;;5081280;28;20058;-73
2023/04/11 14:03:32;;;;;;;2.40;1.20;;;17.30;96.70;;;;;;5064900;28;20048;-74
2023/04/11 14:06:02;;;;;;;2.95;1.40;;;17.40;96.70;;;;;;5089761;28;20144;-73
2023/04/11 14:08:30;;;;;;;2.17;1.00;;;17.40;96.70;;;;;;5090768;28;20605;-74
2023/04/11 14:10:58;;;;;;;3.67;1.17;;;17.30;96.70;;;;;;5088359;28;20060;-74
2023/04/11 14:13:26;;;;;;;2.22;1.17;;;17.30;96.70;;;;;;5081146;28;20044;-74
2023/04/11 14:15:56;;;;;;;2.03;1.02;;;17.20;96.70;;;;;;5087816;28;20401;-73
2023/04/11 14:18:35;;;;;;;1.15;0.88;;;17.30;96.70;;;;;;5090101;28;20044;-73
2023/04/11 14:21:04;;;;;;;2.10;0.80;;;17.30;96.70;;;;;;5082885;28;20103;-73
2023/04/11 14:23:32;;;;;;;3.05;1.50;;;17.20;96.70;;;;;;5086500;28;20118;-73
2023/04/11 14:26:01;;;;;;;3.45;1.05;;;17.30;96.70;;;;;;5089299;28;20036;-73
2023/04/11 14:28:29;;;;;;;2.67;0.85;;;17.20;96.70;;;;;;5080999;28;20040;-74
2023/04/11 14:30:58;;;;;;;3.97;1.20;;;17.10;96.70;;;;;;5080827;28;20044;-73
2023/04/11 14:33:27;;;;;;;4.10;1.05;;;17.10;96.70;;;;;;5081895;28;20043;-74
2023/04/11 14:35:55;;;;;;;2.28;1.15;;;17.20;96.70;;;;;;5091234;28;20091;-73
2023/04/11 14:38:23;;;;;;;2.60;0.70;;;17.10;96.70;;;;;;5087272;28;20052;-73
2023/04/11 14:40:51;;;;;;;3.00;0.80;;;17.00;96.70;;;;;;5080956;28;20548;-74
2023/04/11 14:43:19;;;;;;;5.55;1.58;;;17.00;96.70;;;;;;5080642;28;20044;-73
2023/04/11 14:45:47;;;;;;;5.15;3.00;;;17.10;96.70;;;;;;5092268;28;20100;-74
2023/04/11 14:48:17;;;;;;;2.22;1.08;;;17.00;96.70;;;;;;5072693;28;20048;-74
2023/04/11 14:50:45;;;;;;;2.58;0.90;;;17.00;96.70;;;;;;5084873;28;20063;-75
2023/04/11 14:53:14;;;;;;;3.33;1.05;;;16.90;96.70;;;;;;5086901;28;20051;-74
2023/04/11 14:55:42;;;;;;;1.98;0.85;;;16.90;96.70;;;;;;5064389;28;20134;-74
2023/04/11 14:58:11;;;;;;;4.90;1.02;;;16.90;96.70;;;;;;5073181;28;20052;-74
2023/04/11 15:00:39;;;;;;;1.92;1.00;;;16.90;96.70;;;;;;5085864;28;20061;-74
2023/04/11 15:03:08;;;;;;;3.75;1.10;;;16.90;96.70;;;;;;5084731;28;20080;-74
2023/04/11 15:05:38;;;;;;;3.75;1.40;;;16.90;96.70;;;;;;5073220;28;20569;-74
2023/04/11 15:08:07;;;;;;;4.43;1.40;;;16.90;96.70;;;;;;5085048;28;20052;-74
2023/04/11 15:10:35;;;;;;;4.90;1.33;;;17.00;96.70;;;;;;5093771;28;20127;-74
2023/04/11 15:13:04;;;;;;;3.92;0.90;;;17.00;96.70;;;;;;5084742;28;20051;-73
2023/04/11 15:15:32;;;;;;;2.55;0.80;;;17.00;96.70;;;;;;5104747;28;20040;-73
2023/04/11 15:18:23;;;;;;;3.88;1.00;;;17.00;96.70;;;;;;5103314;28;20121;-73
2023/04/11 15:20:54;;;;;;;2.90;1.17;;;16.90;96.70;;;;;;5076492;28;20527;-72
2023/04/11 15:23:22;;;;;;;6.05;2.38;;;16.90;96.70;;;;;;5085768;28;20044;-73
2023/04/11 15:25:58;;;;;;;5.53;3.50;;;16.90;96.70;;;;;;5087573;28;20044;-73
2023/04/11 15:28:30;;;;;;;3.88;1.50;;;17.00;96.70;;;;;;5103325;28;20052;-73
2023/04/11 15:30:58;;;;;;;2.38;1.10;;;17.00;96.70;;;;;;5083573;28;20058;-73
2023/04/11 15:33:26;;;;;;;4.10;1.42;;;17.00;96.70;;;;;;5092737;28;20497;-73
2023/04/11 15:35:58;;;;;;;4.05;1.40;;;17.00;96.70;;;;;;5102660;28;20052;-73
2023/04/11 15:38:27;;;;;;;4.40;1.13;;;16.90;96.70;;;;;;5097666;28;20978;-74
2023/04/11 15:40:58;;;;;;;6.78;2.20;;;16.90;96.70;;;;;;5094339;28;20141;-73
2023/04/11 15:43:26;;;;;;;4.15;1.30;;;16.90;96.70;;;;;;5083788;28;20540;-74
2023/04/11 15:45:54;;;;;;;5.38;1.10;;;17.00;96.70;;;;;;5084887;28;20032;-74
2023/04/11 15:48:22;;;;;;;3.78;1.52;;;17.00;96.70;;;;;;5102878;28;20122;-73
2023/04/11 15:50:51;;;;;;;4.10;1.45;;;17.00;96.70;;;;;;5091977;28;20211;-73
2023/04/11 15:53:21;;;;;;;4.50;1.58;;;17.00;96.70;;;;;;5085332;28;20044;-73
2023/04/11 15:55:50;;;;;;;3.58;1.70;;;17.00;96.70;;;;;;5092979;28;20044;-73
2023/04/11 15:58:18;;;;;;;3.45;1.80;;;16.90;96.70;;;;;;5102751;28;20044;-73
2023/04/11 16:00:46;;;;;;;5.53;2.17;;;17.00;96.70;;;;;;5093772;28;20105;-73
2023/04/11 16:03:15;;;;;;;3.58;1.10;;;17.00;96.70;;;;;;5081144;28;20048;-73
2023/04/11 16:05:44;;;;;;;3.15;1.17;;;17.00;96.70;;;;;;5093323;28;20638;-73
2023/04/11 16:08:12;;;;;;;3.05;1.33;;;17.00;96.70;;;;;;5100870;28;20543;-73
2023/04/11 16:10:42;;;;;;;2.17;1.38;;;17.00;96.70;;;;;;5097450;28;20040;-73
2023/04/11 16:13:10;;;;;;;3.70;2.05;;;17.10;96.70;;;;;;5077019;28;20052;-73
2023/04/11 16:15:38;;;;;;;4.28;2.10;;;17.20;96.70;;;;;;5092866;28;20066;-73
2023/04/11 16:18:06;;;;;;;7.15;3.35;;;17.30;96.70;;;;;;5093113;28;20569;-72
2023/04/11 16:20:34;;;;;;;4.45;1.90;;;17.30;96.70;;;;;;5078872;28;20049;-73
2023/04/11 16:23:03;;;;;;;3.80;2.35;;;17.20;96.70;;;;;;5092515;28;20051;-73
2023/04/11 16:25:31;;;;;;;4.03;1.80;;;17.20;96.70;;;;;;5086808;28;20545;-73
2023/04/11 16:28:00;;;;;;;3.67;1.73;;;17.10;96.70;;;;;;5064490;28;20048;-73
2023/04/11 16:30:29;;;;;;;4.47;1.30;;;17.10;96.70;;;;;;5091160;28;20054;-73
2023/04/11 16:32:57;;;;;;;5.30;1.80;;;17.10;96.70;;;;;;5101046;28;20048;-73
2023/04/11 16:35:25;;;;;;;4.57;1.60;;;17.20;96.70;;;;;;5086225;28;20512;-73
2023/04/11 16:37:53;;;;;;;9.23;5.25;;;17.20;96.70;;;;;;5100947;28;20040;-73
2023/04/11 16:40:22;;;;;;;8.05;5.05;;;17.10;96.70;;;;;;5096460;28;20039;-73
2023/04/11 16:42:50;;;;;;;12.32;7.80;;;17.10;96.70;;;;;;5087152;28;20058;-73
2023/04/11 16:45:20;;;;;;;5.03;3.05;;;17.00;96.70;;;;;;5099760;28;20042;-72
2023/04/11 16:47:48;;;;;;;3.40;1.90;;;17.00;96.70;;;;;;5082688;28;20147;-73
2023/04/11 16:50:17;;;;;;;3.30;1.25;;;17.00;96.70;;;;;;5091673;28;20439;-73
2023/04/11 16:52:45;;;;;;;3.25;1.58;;;17.00;96.70;;;;;;5102947;27;20039;-73
2023/04/11 16:55:13;;;;;;;2.45;1.40;;;17.00;96.70;;;;;;5101344;28;20050;-74
2023/04/11 16:57:42;;;;;;;2.97;1.50;;;16.90;96.70;;;;;;5091214;28;20036;-73
2023/04/11 17:00:17;;;;;;;4.82;1.90;;;16.90;96.70;;;;;;5092968;28;20075;-73
2023/04/11 17:02:47;;;;;;;3.38;1.50;;;16.90;96.70;;;;;;5091962;28;20051;-73
2023/04/11 17:05:17;;;;;;;5.38;2.00;;;16.90;96.70;;;;;;5097813;28;20040;-73
2023/04/11 17:07:46;;;;;;;2.97;1.40;;;16.80;96.70;;;;;;5102348;28;20039;-72
2023/04/11 17:10:14;;;;;;;3.00;1.30;;;16.80;96.70;;;;;;5091335;28;20104;-73
2023/04/11 17:12:42;;;;;;;3.83;1.48;;;16.80;96.70;;;;;;5093179;28;20043;-73
2023/04/11 17:15:11;;;;;;;4.32;1.33;;;16.70;96.70;;;;;;5082357;28;20584;-73
2023/04/11 17:17:40;;;;;;;2.58;1.42;;;16.70;96.70;;;;;;5066039;28;20051;-73
2023/04/11 17:20:11;;;;;;;3.00;1.45;;;16.70;96.70;;;;;;5090273;28;20044;-73
2023/04/11 17:22:41;;;;;;;3.95;1.52;;;16.60;96.70;;;;;;5090285;28;20137;-73
2023/04/11 17:25:10;;;;;;;4.88;1.58;;;16.60;96.70;;;;;;5092089;28;20048;-73
2023/04/11 17:27:39;;;;;;;4.35;2.03;;;16.60;96.70;;;;;;5090979;28;20047;-73
2023/04/11 17:30:08;;;;;;;3.05;1.67;;;16.50;96.70;;;;;;5089763;28;20565;-73